Flight Track Log - Related Links

Times and Time Zones

All times are in EDT time to prevent confusion due to time zone crossing. See the DAL1943 flight status page for this flight to view local times or setup timezone preferences in your user account.

Time Position Orientation Groundspeed Altitude Reporting Facility
EDT Latitude Longitude Course Direction KTS MPH feet Rate Location/Type
Sun 06:59:21 PM 28.4000 -81.3000 350° North 165 190 700  Level Orlando TRACON
Sun 07:00:09 PM 28.3667 -81.3167 204° Southwest 204 235 2,400 2,556 Climbing Orlando TRACON
Sun 07:01:09 PM 28.3333 -81.3833 240° Southwest 273 314 5,300 2,730 Climbing Orlando TRACON
Sun 07:02:00 PM 28.8346 -81.3503 350° North  Level FlightAware Approximate
Sun 07:03:00 PM 28.9391 -81.3667 North  Level FlightAware Approximate
Sun 07:03:29 PM 28.4842 -81.4494 339° North 302 348 11,500  Level Jacksonville Center
Sun 07:04:00 PM 29.0443 -81.3755 350° North  Level FlightAware Approximate
Sun 07:04:29 PM 28.5867 -81.4742 348° North 338 389 13,700  Level Jacksonville Center
Sun 07:05:29 PM 28.6933 -81.5033 347° North 371 427 16,500 2,450 Climbing Jacksonville Center
Sun 07:06:29 PM 28.8147 -81.5325 348° North 384 442 18,600 2,050 Climbing Jacksonville Center
Sun 07:07:29 PM 28.9319 -81.5642 347° North 401 461 20,600 2,100 Climbing Jacksonville Center
Sun 07:08:29 PM 29.0533 -81.5908 349° North 420 483 22,800 1,950 Climbing Jacksonville Center
Sun 07:09:29 PM 29.1706 -81.6250 346° North 433 498 24,500 1,750 Climbing Jacksonville Center
Sun 07:10:29 PM 29.2961 -81.6567 348° North 439 505 26,300 1,250 Climbing Jacksonville Center
Sun 07:11:29 PM 29.4175 -81.6886 347° North 444 511 27,000 350 Climbing Jacksonville Center
Sun 07:12:29 PM 29.5431 -81.7206 348° North 449 517 27,000  Level Jacksonville Center
Sun 07:13:29 PM 29.6686 -81.7547 347° North 454 522 27,000  Level Jacksonville Center
Sun 07:14:29 PM 29.7942 -81.7844 348° North 454 522 27,000  Level Jacksonville Center
Sun 07:15:29 PM 29.9156 -81.8261 343° North 449 517 27,000  Level Jacksonville Center
Sun 07:16:29 PM 30.0369 -81.8681 343° North 454 522 27,000  Level Jacksonville Center
Sun 07:17:29 PM 30.1564 -81.9100 343° North 454 522 27,000  Level Jacksonville Center
Sun 07:18:29 PM 30.2797 -81.9544 343° North 454 522 27,000  Level Jacksonville Center
Sun 07:19:29 PM 30.4011 -81.9992 342° North 467 537 27,000  Level Jacksonville Center
Sun 07:20:29 PM 30.5225 -82.0461 342° North 467 537 27,000  Level Jacksonville Center
Sun 07:21:29 PM 30.6336 -82.0911 341° North 467 537 27,000  Level Jacksonville Center
Sun 07:22:29 PM 30.7528 -82.1358 342° North 462 532 27,000  Level Jacksonville Center
Sun 07:23:29 PM 30.8764 -82.1808 343° North 462 532 27,000  Level Jacksonville Center
Sun 07:24:29 PM 30.9956 -82.2286 341° North 462 532 27,000  Level Jacksonville Center
Sun 07:25:29 PM 31.1147 -82.2786 340° North 462 532 27,000  Level Jacksonville Center
Sun 07:26:29 PM 31.2361 -82.3192 344° North 457 526 27,000  Level Jacksonville Center
Sun 07:27:29 PM 31.3594 -82.3647 342° North 457 526 27,000  Level Jacksonville Center
Sun 07:29:17 PM 31.5797 -82.4519 341° North 459 528 27,000  Level Atlanta Center
Sun 07:30:17 PM 31.7014 -82.4961 343° North 464 534 27,000  Level Atlanta Center
Sun 07:31:17 PM 31.8231 -82.5431 342° North 464 534 27,000  Level Atlanta Center
Sun 07:32:17 PM 31.9469 -82.5922 341° North 464 534 27,000  Level Atlanta Center
Sun 07:33:17 PM 32.0581 -82.6542 335° Northwest 459 528 27,000 -250 Level Atlanta Center
Sun 07:34:17 PM 32.1817 -82.6842 348° North 454 522 26,500 -650 Descending Atlanta Center
Sun 07:35:17 PM 32.3028 -82.6994 354° North 436 502 25,700 -800 Descending Atlanta Center
Sun 07:36:17 PM 32.4200 -82.7125 355° North 426 490 24,900 -850 Descending Atlanta Center
Sun 07:37:17 PM 32.5411 -82.7256 355° North 420 483 24,000 -450 Descending Atlanta Center
Sun 07:38:17 PM 32.6478 -82.7561 346° North 399 459 24,000  Level Atlanta Center
Sun 07:39:17 PM 32.7114 -82.8464 310° West 350 403 24,000  Level Atlanta Center
Sun 07:40:17 PM 32.7667 -82.9444 304° West 361 415 24,000  Level Atlanta Center
Sun 07:41:17 PM 32.8217 -83.0525 301° West 366 421 24,000  Level Atlanta Center
Sun 07:42:17 PM 32.8725 -83.1533 301° West 366 421 24,000  Level Atlanta Center
Sun 07:43:17 PM 32.9150 -83.2347 302° West 361 415 24,000 -650 Level Atlanta Center
Sun 07:44:17 PM 32.9761 -83.3456 303° West 361 415 22,700 -1,700 Descending Atlanta Center
Sun 07:45:17 PM 33.0289 -83.4517 301° West 355 409 20,600 -2,000 Descending Atlanta Center
Sun 07:46:17 PM 33.0753 -83.5456 301° West 350 403 18,700 -1,600 Descending Atlanta Center
Sun 07:47:17 PM 33.1194 -83.6272 303° West 315 362 17,400 -1,546 Descending Atlanta Center
Sun 07:47:54 PM 33.1500 -83.6833 303° West 291 335 16,200 -1,732 Descending Atlanta TRACON
Sun 07:48:54 PM 33.2000 -83.7667 306° West 283 326 14,600 -1,200 Descending Atlanta TRACON
Sun 07:49:54 PM 33.2333 -83.8333 301° West 293 337 13,800 -1,200 Descending Atlanta TRACON
Sun 07:50:54 PM 33.2833 -83.9167 306° West 290 334 12,200 -850 Descending Atlanta TRACON
Sun 07:51:54 PM 33.3333 -84.0000 306° West 302 348 12,100 -50 Descending Atlanta TRACON
Sun 07:52:54 PM 33.4000 -84.0667 320° Northwest 307 353 12,100  Level Atlanta TRACON
Sun 07:53:54 PM 33.4500 -84.1500 306° West 299 344 12,100  Level Atlanta TRACON
Sun 07:54:54 PM 33.5000 -84.2333 306° West 303 349 12,100 -400 Level Atlanta TRACON
Sun 07:55:54 PM 33.5333 -84.3000 301° West 260 299 11,300 -900 Descending Atlanta TRACON
Sun 07:56:54 PM 33.5333 -84.3833 270° West 245 282 10,300 -1,286 Descending Atlanta TRACON
Sun 07:58:00 PM 33.5333 -84.4667 270° West 253 291 8,600 -1,650 Descending Atlanta TRACON
Sun 07:58:54 PM 33.5333 -84.5500 270° West 241 277 7,000 -1,737 Descending Atlanta TRACON
Sun 07:59:54 PM 33.5333 -84.6333 270° West 238 274 5,300 -1,571 Descending Atlanta TRACON
Sun 08:01:00 PM 33.5333 -84.7167 270° West 224 258 3,700 -1,048 Descending Atlanta TRACON
Sun 08:02:00 PM 33.5500 -84.7833 287° West 216 249 3,100 -316 Descending Atlanta TRACON
Sun 08:02:54 PM 33.6000 -84.7833 360° North 220 253 3,100 -53 Level Atlanta TRACON
Sun 08:03:54 PM 33.6167 -84.7167 73° East 187 215 3,000 -50 Descending Atlanta TRACON
Sun 08:04:54 PM 33.6167 -84.6500 90° East 179 206 3,000  Level Atlanta TRACON
Sun 08:06:00 PM 33.6167 -84.6000 90° East 178 205 3,000 -286 Level Atlanta TRACON
Sun 08:07:00 PM 33.6167 -84.5333 90° East 179 206 2,400 -650 Descending Atlanta TRACON
Sun 08:08:00 PM 33.6167 -84.4833 90° East 128 147 1,700 -650 Descending Atlanta TRACON
Sun 08:09:00 PM 33.6167 -84.4500 90° East 122 140 1,100 -600 Descending Atlanta TRACON

Login

Don't have an account? Register now (free) for customized features, flight alerts, and more!